Floreffe, Pennsylvania
Current Conditions -  °F | °C
As of 8:53 AM on Tuesday 27 Jan 2015 (Local Time) from KAGC Reporting Station
Light Snow Light Snow  
Wind Chill: 10°   Ceiling: 1100
Heat Index: 19°   Visibility: 1.2mi
Dew Point: 14°   Wind: 7mph
Humidity: 81%   Direction: 330°NNW
Pressure: 29.9"   Gusts: NA
Location:  40.2958°N, 79.9241°W
Report Text: KAGC 271353Z 33006KT 1 1/4SM -SN OVC011 M07/M10 A2990 RMK AO2 SLP146 P0000 T10721100
Loading
Personal Weather Stations






























Interactive Weather Map New forecast layout! Learn more

10-Day Weather Forecast

Advertisements
Track Severe Weather on mobile